Ana Sayfa
METAR-TAF:

METAR-TAF

Havaalanları :

Alamogordo, New Mexico, Amerika Birleşik Devletleri

Enlem: 32-50N, Boylam: 105-59W, yükseklik: 1279 m

Güncel hava durumu gözlemi

Rapor saat 03:35 UTC de 21 dakika önce yapıldı.
Rüzgar kuzey/kuzeybatıdan 21 kt ve 27 kt'a kadar ani rüzgarlar
Sıcaklık 30°C
Nem 33%
Basınç 1016 hPa
Görüş mesafesi: 9.7 km
200 ft yükseklikte az bulutlu
7500 ft yükseklikte parçalı bulutlu
10000 ft yükseklikte parçalı çok bulutlu
hafif yağmur

METAR: KALM 160335Z AUTO 33021G27KT 6SM -RA FEW002 SCT075 BKN100 30/12 A3001 RMK AO2

Saat: 21:56 (03:56 UTC)


TAF: eksik

4.000'den fazla havaalanı için hava durumu gözlemleri ve tahminleri (METAR ve TAF raporları).

Kullanılabilir istasyonlar harita üzerinde sarı ve kırmızı noktalarla gösterilir.

İstasyonun adını görmek için fareyi noktanın üzerinde gezdirin.

Sonrasında hava gözlem ve tahminlerini görmek için tıklayın.

Haritayı değiştirmek için: yaklaştırmak için siyah artı işaretli yeşil düğmeye ve uzaklaştırmak için de eksi işaretli düğmeye hızla tıklayın; bitişik haritalar için yeşil okları kullanın.


METAR-TAF: